GOBD

Blaise Diagne International Airport

Dakar, Senegal
METAR GOBD 241300Z 35014KT 4500 HZ NSC 27/15 Q1012 NOSIG
Observed Flight Rules
May-24 @ 13:00 UTC (47 minutes ago) Instrument Flight Rules
Wind Visibility Clouds Conditions
350° at 14 knots 4,506 meters
  • Clear skies
  • Haze
Temperatures Readings
Current 27°C / 81°F
Dewpoint 15°C / 59°F
Humidity 48%
Altimeter 29.88" Hg
Pressure 1012 hPa
Elevation 88
METAR GOBD 241300Z 35014KT 4500 HZ NSC 27/15 Q1012 NOSIG
Observed Flight Rules
May-24 @ 13:00 UTC
(47 minutes ago)
IFR
Wind Visibility
350° at 14 knots 4,506 meters
Clouds
  • Clear skies
Conditions
  • Haze
Temperature Dewpoint
27°C / 81°F 15°C / 59°F
Humidity Altimeter Pressure
48% 29.88" Hg 1012 hPa